首页
METAR-TAF:

METAR-TAF

机场 :

Paganella, 意大利

纬度: 46-09N, 经度: 011-02E, 海拔: 2125米

当前天气观测

该预报发布于29分钟前的00:55 UTC
风速8节,风向西转西南
温度 2°C
湿度 87%
气压 1021 hPa
能見度: 0900

METAR: LIVP 170055Z 24008KT 0900 FG VV/// 02/M00 Q1021 RMK MON INVIS VAL INVIS VIS MIN 0900

时间: 03:24 (01:24 UTC)


TAF: 丢失

超过4000个机场的气象观测和天气预报(METAR&TAF报告)。

可查询的气象台以黄色和红色小点在地图上表示。

将鼠标移到小点上方,可查看气象台名称。

然后点击查看天气观测和预报。

如需切换地图:点击带黑十字的绿色按钮放大地图;点击带横线的绿色按钮缩小地图;或者点击绿色箭头查看邻近地区的地图。


METAR-TAF: